Accueil
METAR-TAF:

METAR-TAF

Aéroports :

Gibraltar, Gibraltar

Aéroport international de Gibraltar

latitude: 36-09N, longitude: 005-21W, altitude: 5 m

Observation

Le bulletin a été fait il y a 1 heure et 17 minutes, à 02:50 UTC
Vent 17 kt de est/nord-est
Température 19°C
Humidité 88%
Pression 1022 hPa
Visibilité 10 km ou plus

METAR: LXGB 240250Z AUTO 07017KT 9999 // OVC009/// 19/17 Q1022

Heure: 06:07 (04:07 UTC)

Prévision

Le bulletin a été fait il y a 11 heures et 33 minutes, à 16:34 UTC
Prévision valable du 23 à 18 UTC au 23 à 22 UTC
Vent 12 kt de est
Visibilité 10 km ou plus
Quelques nuages à une hauteur de 800 ft
Probabilité 30% :
Temporairement
du 23 à 18 UTC au 23 à 22 UTC
Nuages épars à une hauteur de 800 ft

TAF: LXGB 231634Z 2318/2322 08012KT 9999 FEW008 PROB30 TEMPO 2318/2322 SCT008

Observations et prévisions météorologiques de plus de 4000 aéroports (messages METAR et TAF).

Les stations disponibles sont représentées par des disques jaunes et rouges sur la carte.

Passer la souris dessus pour voir le nom de la station.

Cliquer dessus pour voir les observations et prévisions météorologiques.

Pour changer de carte: cliquez sur les boutons verts avec une croix noire pour zoomer, sur le bouton vert avec un tiret pour effectuer un zoom arrière, ou sur les flèches vertes pour les cartes adjacentes.


METAR-TAF: